createdAt,value
2019-05-26T00:00:11.573Z,1007.88
2019-05-26T00:01:11.541Z,1007.84
2019-05-26T00:02:11.521Z,1007.82
2019-05-26T00:03:11.501Z,1007.83
2019-05-26T00:04:11.496Z,1007.79
2019-05-26T00:05:11.462Z,1007.79
2019-05-26T00:06:11.446Z,1007.81
2019-05-26T00:07:11.426Z,1007.79
2019-05-26T00:08:11.405Z,1007.82
2019-05-26T00:09:11.405Z,1007.79
2019-05-26T00:10:11.403Z,1007.81
2019-05-26T00:11:11.349Z,1007.81
2019-05-26T00:12:15.717Z,1007.84
2019-05-26T00:13:11.308Z,1007.84
2019-05-26T00:14:11.291Z,1007.79
2019-05-26T00:15:11.286Z,1007.80
2019-05-26T00:16:11.280Z,1007.82
2019-05-26T00:17:11.236Z,1007.81
2019-05-26T00:18:11.217Z,1007.81
2019-05-26T00:19:11.194Z,1007.87
2019-05-26T00:20:11.188Z,1007.85
2019-05-26T00:21:11.157Z,1007.83
2019-05-26T00:22:11.136Z,1007.86
2019-05-26T00:23:11.115Z,1007.85
2019-05-26T00:24:11.098Z,1007.83
2019-05-26T00:25:11.100Z,1007.81
2019-05-26T00:26:11.059Z,1007.82
2019-05-26T00:27:11.039Z,1007.80
2019-05-26T00:28:11.027Z,1007.86
2019-05-26T00:29:11.005Z,1007.81
2019-05-26T00:30:10.983Z,1007.81
2019-05-26T00:31:10.974Z,1007.80
2019-05-26T00:32:10.943Z,1007.80
2019-05-26T00:33:10.923Z,1007.78
2019-05-26T00:34:10.904Z,1007.82
2019-05-26T00:35:10.884Z,1007.80
2019-05-26T00:36:10.879Z,1007.83
2019-05-26T00:37:10.846Z,1007.78
2019-05-26T00:38:10.831Z,1007.79
2019-05-26T00:39:10.807Z,1007.78
2019-05-26T00:40:10.787Z,1007.78
2019-05-26T00:41:10.783Z,1007.76
2019-05-26T00:42:10.762Z,1007.77
2019-05-26T00:43:10.730Z,1007.77
2019-05-26T00:44:10.710Z,1007.74
2019-05-26T00:45:10.696Z,1007.78
2019-05-26T00:46:10.688Z,1007.76
2019-05-26T00:47:10.661Z,1007.74
2019-05-26T00:48:10.631Z,1007.73
2019-05-26T00:49:10.614Z,1007.72
2019-05-26T00:50:10.598Z,1007.70
2019-05-26T00:51:10.591Z,1007.71
2019-05-26T00:52:10.574Z,1007.71
2019-05-26T00:53:10.533Z,1007.71
2019-05-26T00:54:10.516Z,1007.73
2019-05-26T00:55:10.496Z,1007.74
2019-05-26T00:56:10.475Z,1007.71
2019-05-26T00:57:10.473Z,1007.72
2019-05-26T00:58:10.437Z,1007.71
2019-05-26T00:59:10.415Z,1007.69
2019-05-26T01:00:10.418Z,1007.70
2019-05-26T01:01:10.383Z,1007.67
2019-05-26T01:02:10.373Z,1007.67
2019-05-26T01:03:10.340Z,1007.66
2019-05-26T01:04:10.344Z,1007.65
2019-05-26T01:05:10.302Z,1007.64
2019-05-26T01:06:10.280Z,1007.66
2019-05-26T01:07:10.275Z,1007.64
2019-05-26T01:08:10.241Z,1007.60
2019-05-26T01:09:10.221Z,1007.60
2019-05-26T01:10:10.202Z,1007.61
2019-05-26T01:11:10.183Z,1007.63
2019-05-26T01:12:10.178Z,1007.60
2019-05-26T01:13:10.145Z,1007.59
2019-05-26T01:14:10.123Z,1007.57
2019-05-26T01:15:10.104Z,1007.59
2019-05-26T01:16:10.084Z,1007.57
2019-05-26T01:17:10.082Z,1007.59
2019-05-26T01:18:10.044Z,1007.58
2019-05-26T01:19:10.022Z,1007.53
2019-05-26T01:20:10.004Z,1007.54
2019-05-26T01:21:09.984Z,1007.55
2019-05-26T01:22:09.965Z,1007.52
2019-05-26T01:23:09.960Z,1007.54
2019-05-26T01:24:09.927Z,1007.53
2019-05-26T01:25:09.965Z,1007.54
2019-05-26T01:26:09.890Z,1007.52
2019-05-26T01:27:09.867Z,1007.54
2019-05-26T01:28:09.862Z,1007.54
2019-05-26T01:29:09.829Z,1007.54
2019-05-26T01:30:09.808Z,1007.56
2019-05-26T01:31:09.787Z,1007.58
2019-05-26T01:32:09.773Z,1007.59
2019-05-26T01:33:09.768Z,1007.60
2019-05-26T01:34:09.727Z,1007.59
2019-05-26T01:35:09.712Z,1007.63
2019-05-26T01:36:09.695Z,1007.62
2019-05-26T01:37:09.669Z,1007.62
2019-05-26T01:38:23.248Z,1007.69
2019-05-26T01:39:09.628Z,1007.60
2019-05-26T01:40:09.611Z,1007.61
2019-05-26T01:41:09.587Z,1007.67
2019-05-26T01:42:09.582Z,1007.62
2019-05-26T01:43:09.551Z,1007.62
2019-05-26T01:44:09.556Z,1007.59
2019-05-26T01:45:09.509Z,1007.64
2019-05-26T01:46:09.492Z,1007.64
2019-05-26T01:47:09.469Z,1007.60
2019-05-26T01:48:09.450Z,1007.62
2019-05-26T01:49:09.442Z,1007.62
2019-05-26T01:50:09.412Z,1007.61
2019-05-26T01:51:09.391Z,1007.62
2019-05-26T01:52:09.371Z,1007.67
2019-05-26T01:53:09.351Z,1007.66
2019-05-26T01:54:09.344Z,1007.68
2019-05-26T01:55:09.311Z,1007.71
2019-05-26T01:56:09.294Z,1007.66
2019-05-26T01:57:09.271Z,1007.68
2019-05-26T01:58:09.253Z,1007.67
2019-05-26T01:59:09.243Z,1007.68
2019-05-26T02:00:09.210Z,1007.70
2019-05-26T02:01:09.193Z,1007.70
2019-05-26T02:02:09.170Z,1007.66
2019-05-26T02:03:09.149Z,1007.68
2019-05-26T02:04:09.147Z,1007.67
2019-05-26T02:05:09.112Z,1007.66
2019-05-26T02:06:09.097Z,1007.65
2019-05-26T02:07:09.072Z,1007.67
2019-05-26T02:08:11.815Z,1007.73
2019-05-26T02:09:09.046Z,1007.75
2019-05-26T02:10:09.010Z,1007.74
2019-05-26T02:11:08.992Z,1007.67
2019-05-26T02:12:08.971Z,1007.71
2019-05-26T02:13:08.952Z,1007.69
2019-05-26T02:14:08.951Z,1007.68
2019-05-26T02:15:08.914Z,1007.68
2019-05-26T02:16:08.894Z,1007.70
2019-05-26T02:17:08.871Z,1007.66
2019-05-26T02:18:08.850Z,1007.65
2019-05-26T02:19:08.846Z,1007.69
2019-05-26T02:20:08.839Z,1007.68
2019-05-26T02:21:08.791Z,1007.69
2019-05-26T02:22:08.773Z,1007.71
2019-05-26T02:23:08.750Z,1007.70
2019-05-26T02:24:08.744Z,1007.72
2019-05-26T02:25:08.711Z,1007.71
2019-05-26T02:26:08.690Z,1007.70
2019-05-26T02:27:08.670Z,1007.71
2019-05-26T02:28:08.647Z,1007.72
2019-05-26T02:29:08.668Z,1007.75
2019-05-26T02:30:08.623Z,1007.74
2019-05-26T02:31:08.595Z,1007.73
2019-05-26T02:32:08.569Z,1007.73
2019-05-26T02:33:08.553Z,1007.74
2019-05-26T02:34:08.536Z,1007.72
2019-05-26T02:35:08.524Z,1007.71
2019-05-26T02:36:08.506Z,1007.72
2019-05-26T02:37:08.473Z,1007.74
2019-05-26T02:38:08.450Z,1007.75
2019-05-26T02:39:08.431Z,1007.73
2019-05-26T02:40:08.426Z,1007.75
2019-05-26T02:41:08.389Z,1007.72
2019-05-26T02:42:08.370Z,1007.70
2019-05-26T02:43:08.349Z,1007.74
2019-05-26T02:44:08.327Z,1007.70
2019-05-26T02:45:08.325Z,1007.73
2019-05-26T02:46:08.308Z,1007.73
2019-05-26T02:47:08.270Z,1007.74
2019-05-26T02:48:08.272Z,1007.74
2019-05-26T02:49:08.233Z,1007.71
2019-05-26T05:41:33.546Z,1007.41
2019-05-26T05:42:33.510Z,1007.39
2019-05-26T05:43:33.486Z,1007.44
2019-05-26T05:44:33.478Z,1007.43
2019-05-26T05:45:33.443Z,1007.44
2019-05-26T05:46:33.422Z,1007.48
2019-05-26T05:47:33.400Z,1007.43
2019-05-26T05:48:33.381Z,1007.41
2019-05-26T05:49:33.375Z,1007.40
2019-05-26T05:50:33.339Z,1007.39
2019-05-26T05:51:33.321Z,1007.41
2019-05-26T05:52:33.302Z,1007.40
2019-05-26T05:53:33.283Z,1007.40
2019-05-26T05:54:33.277Z,1007.45
2019-05-26T05:55:33.246Z,1007.46
2019-05-26T05:56:33.223Z,1007.40
2019-05-26T05:57:33.204Z,1007.43
2019-05-26T05:58:33.185Z,1007.44
2019-05-26T05:59:33.185Z,1007.42
2019-05-26T06:00:33.147Z,1007.43
2019-05-26T06:01:33.136Z,1007.44
2019-05-26T06:02:33.112Z,1007.44
2019-05-26T06:03:33.093Z,1007.43
2019-05-26T06:04:33.092Z,1007.42
2019-05-26T06:05:33.055Z,1007.42
2019-05-26T06:06:33.038Z,1007.39
2019-05-26T06:07:33.021Z,1007.42
2019-05-26T06:08:33.003Z,1007.35
2019-05-26T06:09:33.005Z,1007.35
2019-05-26T06:10:32.969Z,1007.31
2019-05-26T06:11:32.951Z,1007.31
2019-05-26T06:12:32.931Z,1007.32
2019-05-26T06:13:32.915Z,1007.33
2019-05-26T06:14:32.956Z,1007.33
2019-05-26T06:15:32.900Z,1007.36
2019-05-26T06:32:38.623Z,1007.22
2019-05-26T06:33:38.592Z,1007.22
2019-05-26T06:34:38.567Z,1007.23
2019-05-26T06:35:38.548Z,1007.22
2019-05-26T06:36:38.545Z,1007.21
2019-05-26T06:37:38.515Z,1007.21
2019-05-26T06:38:38.493Z,1007.24
2019-05-26T06:39:38.477Z,1007.22
2019-05-26T06:40:41.266Z,1007.21
2019-05-26T06:41:38.454Z,1007.23
2019-05-26T06:42:38.425Z,1007.19
2019-05-26T06:43:38.405Z,1007.22
2019-05-26T06:44:52.518Z,1007.21
2019-05-26T06:45:38.371Z,1007.22
2019-05-26T06:46:38.366Z,1007.22
2019-05-26T06:47:38.336Z,1007.22
2019-05-26T06:48:38.320Z,1007.26
2019-05-26T06:49:38.306Z,1007.27
2019-05-26T06:50:38.289Z,1007.22
2019-05-26T06:51:38.283Z,1007.26
2019-05-26T06:52:38.255Z,1007.29
2019-05-26T06:53:38.240Z,1007.25
2019-05-26T06:54:38.221Z,1007.22
2019-05-26T06:55:38.205Z,1007.24
2019-05-26T06:56:38.204Z,1007.26
2019-05-26T06:57:38.173Z,1007.23
2019-05-26T06:58:38.159Z,1007.24
2019-05-26T06:59:38.142Z,1007.22
2019-05-26T07:00:38.123Z,1007.23
2019-05-26T07:01:38.123Z,1007.21
2019-05-26T07:02:38.098Z,1007.22
2019-05-26T07:03:38.080Z,1007.23
2019-05-26T07:04:38.064Z,1007.26
2019-05-26T07:05:38.049Z,1007.25
2019-05-26T07:06:38.049Z,1007.28
2019-05-26T07:07:38.015Z,1007.29
2019-05-26T07:08:38.002Z,1007.26
2019-05-26T07:09:37.989Z,1007.26
2019-05-26T07:10:37.969Z,1007.27
2019-05-26T07:11:51.736Z,1007.24
2019-05-26T07:12:37.956Z,1007.27
2019-05-26T07:13:37.920Z,1007.23
2019-05-26T07:14:37.904Z,1007.21
2019-05-26T07:15:37.897Z,1007.21
2019-05-26T07:35:11.910Z,1007.13
2019-05-26T07:36:11.877Z,1007.08
2019-05-26T07:37:11.858Z,1007.09
2019-05-26T07:38:11.857Z,1007.03
2019-05-26T07:39:11.825Z,1007.02
2019-05-26T07:40:11.805Z,1007.07
2019-05-26T07:41:11.795Z,1007.09
2019-05-26T07:42:11.775Z,1007.07
2019-05-26T07:43:11.775Z,1007.09
2019-05-26T07:44:11.749Z,1007.09
2019-05-26T07:45:11.730Z,1007.09
2019-05-26T07:46:11.716Z,1007.06
2019-05-26T07:47:11.699Z,1007.07
2019-05-26T07:57:21.287Z,1007.03
2019-05-26T07:58:21.266Z,1007.02
2019-05-26T07:59:21.235Z,1007.00
2019-05-26T08:00:21.220Z,1007.00
2019-05-26T08:01:24.378Z,1006.96
2019-05-26T08:02:21.187Z,1007.02
2019-05-26T08:03:21.186Z,1007.02
2019-05-26T08:04:21.155Z,1007.00
2019-05-26T08:05:21.140Z,1007.02
2019-05-26T08:06:21.125Z,1006.99
2019-05-26T08:20:15.470Z,1006.93
2019-05-26T08:21:15.436Z,1006.94
2019-05-26T08:22:15.421Z,1006.91
2019-05-26T08:23:15.462Z,1006.95
2019-05-26T08:24:15.388Z,1006.92
2019-05-26T08:25:15.375Z,1006.90
2019-05-26T08:26:15.353Z,1006.91
2019-05-26T08:27:15.338Z,1006.88
2019-05-26T08:28:15.363Z,1006.86
2019-05-26T08:29:15.311Z,1006.84
2019-05-26T08:30:15.294Z,1006.81
2019-05-26T08:31:15.281Z,1006.82
2019-05-26T08:42:00.488Z,1006.74
2019-05-26T08:43:00.456Z,1006.70
2019-05-26T08:44:00.456Z,1006.66
2019-05-26T08:49:17.910Z,1006.71
2019-05-26T08:50:01.664Z,1006.76
2019-05-26T08:51:01.648Z,1006.77
2019-05-26T08:52:01.637Z,1006.76
2019-05-26T08:53:01.619Z,1006.75
2019-05-26T08:54:01.604Z,1006.72
2019-05-26T08:55:01.602Z,1006.72
2019-05-26T09:13:01.900Z,1006.53
2019-05-26T09:14:01.865Z,1006.52
2019-05-26T09:15:01.861Z,1006.51
2019-05-26T09:16:01.837Z,1006.52
2019-05-26T09:17:01.818Z,1006.51
2019-05-26T09:18:01.797Z,1006.42
2019-05-26T09:19:01.781Z,1006.43
2019-05-26T09:20:01.784Z,1006.39
2019-05-26T09:21:01.808Z,1006.38
2019-05-26T09:22:01.736Z,1006.39
2019-05-26T09:23:01.721Z,1006.45
2019-05-26T09:24:01.706Z,1006.44
2019-05-26T09:25:01.931Z,1006.43
2019-05-26T09:26:01.675Z,1006.41
2019-05-26T09:27:01.661Z,1006.40
2019-05-26T09:28:01.646Z,1006.44
2019-05-26T09:29:01.649Z,1006.43
2019-05-26T09:30:01.635Z,1006.39
2019-05-26T09:31:01.706Z,1006.36
2019-05-26T09:32:01.596Z,1006.38
2019-05-26T09:33:01.578Z,1006.41
2019-05-26T09:34:01.565Z,1006.40
2019-05-26T10:07:40.134Z,1006.05
2019-05-26T10:08:40.100Z,1006.11
2019-05-26T10:09:40.085Z,1006.14
2019-05-26T10:10:40.080Z,1006.14
2019-05-26T10:11:40.053Z,1006.16
2019-05-26T10:12:40.040Z,1006.18
2019-05-26T10:13:40.021Z,1006.18
2019-05-26T10:14:40.007Z,1006.11
2019-05-26T10:15:40.012Z,1006.10
2019-05-26T10:16:39.981Z,1006.10
2019-05-26T10:17:39.964Z,1006.05
2019-05-26T10:18:39.949Z,1006.07
2019-05-26T10:19:39.938Z,1006.13
2019-05-26T10:20:39.922Z,1006.07
2019-05-26T10:21:39.921Z,1006.00
2019-05-26T10:22:39.894Z,1006.01
2019-05-26T10:23:39.880Z,1006.10
2019-05-26T10:24:39.871Z,1005.93
2019-05-26T10:25:39.859Z,1006.01
2019-05-26T10:26:39.855Z,1005.94
2019-05-26T10:27:39.832Z,1005.95
2019-05-26T10:28:39.815Z,1005.87
2019-05-26T10:29:39.805Z,1005.92
2019-05-26T10:30:39.790Z,1005.92
2019-05-26T10:31:39.792Z,1005.98
2019-05-26T10:32:39.763Z,1005.96
2019-05-26T10:33:39.751Z,1005.99
2019-05-26T10:34:39.757Z,1006.01
2019-05-26T10:35:39.736Z,1006.01
2019-05-26T10:36:39.745Z,1006.01
2019-05-26T10:37:39.700Z,1006.09
2019-05-26T10:38:39.688Z,1006.09
2019-05-26T10:39:39.675Z,1006.09
2019-05-26T10:40:39.662Z,1006.08
2019-05-26T10:41:39.651Z,1006.02
2019-05-26T10:42:39.657Z,1006.06
2019-05-26T10:43:47.501Z,1005.94
2019-05-26T10:44:39.616Z,1005.86
2019-05-26T10:45:39.600Z,1005.92
2019-05-26T10:46:39.591Z,1005.93
2019-05-26T10:47:39.727Z,1005.99
2019-05-26T10:48:39.573Z,1005.97
2019-05-26T10:49:39.559Z,1005.99
2019-05-26T10:50:39.546Z,1006.03
2019-05-26T10:51:39.536Z,1006.02
2019-05-26T10:52:39.541Z,1006.02
2019-05-26T10:53:39.512Z,1005.99
2019-05-26T10:54:39.502Z,1005.99
2019-05-26T10:55:39.496Z,1005.98
2019-05-26T10:56:39.481Z,1006.05
2019-05-26T10:57:39.494Z,1006.04
2019-05-26T10:58:39.457Z,1006.08
2019-05-26T10:59:39.447Z,1006.03
2019-05-26T11:00:39.441Z,1006.00
2019-05-26T11:01:39.430Z,1005.98
2019-05-26T11:02:39.432Z,1005.99
2019-05-26T11:03:39.406Z,1005.96
2019-05-26T11:04:39.393Z,1005.95
2019-05-26T11:05:39.384Z,1005.95
2019-05-26T11:06:39.372Z,1005.99
2019-05-26T11:07:39.376Z,1005.99
2019-05-26T11:08:39.354Z,1005.93
2019-05-26T11:09:39.342Z,1005.88
2019-05-26T11:10:39.331Z,1005.83
2019-05-26T11:11:39.320Z,1005.78
2019-05-26T11:15:49.355Z,1005.76
2019-05-26T11:16:49.329Z,1005.80
2019-05-26T11:17:49.340Z,1005.80
2019-05-26T11:18:49.311Z,1005.85
2019-05-26T11:19:49.298Z,1005.83
2019-05-26T11:20:58.527Z,1005.80
2019-05-26T11:21:49.280Z,1005.79
2019-05-26T11:22:49.526Z,1005.78
2019-05-26T11:23:49.257Z,1005.75
2019-05-26T11:24:49.249Z,1005.76
2019-05-26T11:25:49.236Z,1005.67
2019-05-26T11:26:49.241Z,1005.68
2019-05-26T11:27:49.217Z,1005.68
2019-05-26T11:28:49.223Z,1005.61
2019-05-26T11:29:49.208Z,1005.64
2019-05-26T11:30:49.201Z,1005.66
2019-05-26T11:31:49.183Z,1005.66
2019-05-26T11:32:49.165Z,1005.65
2019-05-26T11:33:49.171Z,1005.63
2019-05-26T11:35:01.219Z,1005.58
2019-05-26T11:35:49.135Z,1005.58
2019-05-26T11:36:49.129Z,1005.54
2019-05-26T11:37:49.115Z,1005.50
2019-05-26T11:38:49.129Z,1005.55
2019-05-26T11:39:49.097Z,1005.51
2019-05-26T11:40:49.131Z,1005.50
2019-05-26T11:41:54.806Z,1005.53
2019-05-26T11:42:49.066Z,1005.50
2019-05-26T11:43:49.055Z,1005.51
2019-05-26T11:44:49.061Z,1005.46
2019-05-26T11:45:49.040Z,1005.45
2019-05-26T11:46:49.027Z,1005.40
2019-05-26T11:47:49.015Z,1005.42
2019-05-26T11:48:49.002Z,1005.39
2019-05-26T11:49:49.006Z,1005.37
2019-05-26T11:50:48.982Z,1005.35
2019-05-26T11:51:48.969Z,1005.42
2019-05-26T11:52:48.978Z,1005.42
2019-05-26T11:53:48.968Z,1005.42
2019-05-26T11:54:48.935Z,1005.41
2019-05-26T11:55:48.943Z,1005.37
2019-05-26T11:56:48.917Z,1005.38
2019-05-26T11:57:48.914Z,1005.35
2019-05-26T11:58:48.914Z,1005.33
2019-05-26T11:59:48.894Z,1005.37
2019-05-26T12:00:48.869Z,1005.32
2019-05-26T12:01:48.857Z,1005.29
2019-05-26T12:02:48.846Z,1005.32
2019-05-26T12:03:48.852Z,1005.34
2019-05-26T12:04:48.824Z,1005.29
2019-05-26T12:05:48.812Z,1005.25
2019-05-26T12:06:48.800Z,1005.23
2019-05-26T12:07:48.795Z,1005.24
2019-05-26T12:08:48.779Z,1005.22
2019-05-26T12:09:48.789Z,1005.22
2019-05-26T12:10:48.755Z,1005.23
2019-05-26T12:11:48.742Z,1005.23
2019-05-26T12:12:48.739Z,1005.22
2019-05-26T12:13:48.745Z,1005.18
2019-05-26T12:14:48.708Z,1005.20
2019-05-26T12:15:48.698Z,1005.17
2019-05-26T12:16:48.688Z,1005.19
2019-05-26T12:17:48.676Z,1005.19
2019-05-26T12:18:48.726Z,1005.18
2019-05-26T12:19:48.664Z,1005.12
2019-05-26T12:20:48.641Z,1005.18
2019-05-26T12:21:48.640Z,1005.15
2019-05-26T12:22:48.619Z,1005.17
2019-05-26T12:23:48.626Z,1005.20
2019-05-26T12:24:48.637Z,1005.15
2019-05-26T12:25:48.584Z,1005.18
2019-05-26T12:26:48.572Z,1005.17
2019-05-26T12:27:48.562Z,1005.13
2019-05-26T12:28:48.558Z,1005.11
2019-05-26T12:29:48.539Z,1005.15
2019-05-26T12:30:48.541Z,1005.18
2019-05-26T12:31:48.528Z,1005.10
2019-05-26T12:32:48.504Z,1005.09
2019-05-26T12:33:48.494Z,1005.12
2019-05-26T12:34:48.481Z,1005.08
2019-05-26T12:35:48.517Z,1005.12
2019-05-26T12:36:48.470Z,1005.07
2019-05-26T12:37:48.725Z,1005.08
2019-05-26T12:38:48.436Z,1005.06
2019-05-26T12:39:48.425Z,1005.10
2019-05-26T12:40:48.429Z,1005.10
2019-05-26T12:41:48.405Z,1005.10
2019-05-26T12:42:48.394Z,1005.08
2019-05-26T12:43:48.379Z,1005.04
2019-05-26T12:44:49.934Z,1005.06
2019-05-26T12:45:48.371Z,1005.05
2019-05-26T12:46:48.345Z,1005.05
2019-05-26T12:47:48.336Z,1005.06
2019-05-26T12:48:48.325Z,1005.00
2019-05-26T12:49:48.316Z,1004.98
2019-05-26T12:50:48.319Z,1004.98
2019-05-26T12:51:48.295Z,1004.97
2019-05-26T12:52:48.280Z,1005.00
2019-05-26T12:53:48.278Z,1004.99
2019-05-26T12:54:48.258Z,1005.01
2019-05-26T12:55:48.250Z,1004.98
2019-05-26T12:56:48.251Z,1005.01
2019-05-26T12:57:48.229Z,1005.03
2019-05-26T12:58:48.213Z,1004.97
2019-05-26T12:59:48.204Z,1004.99
2019-05-26T13:00:52.157Z,1004.98
2019-05-26T13:01:48.205Z,1004.98
2019-05-26T13:02:48.216Z,1004.96
2019-05-26T13:03:48.162Z,1005.01
2019-05-26T13:04:48.152Z,1004.97
2019-05-26T13:05:48.143Z,1004.97
2019-05-26T13:06:48.149Z,1004.98
2019-05-26T13:07:48.137Z,1004.94
2019-05-26T13:08:48.111Z,1004.99
2019-05-26T13:09:48.100Z,1004.98
2019-05-26T13:10:48.094Z,1004.95
2019-05-26T13:11:48.083Z,1004.99
2019-05-26T13:12:48.085Z,1004.93
2019-05-26T13:13:48.061Z,1004.96
2019-05-26T13:14:48.051Z,1004.86
2019-05-26T13:15:48.040Z,1004.92
2019-05-26T13:16:48.054Z,1004.87
2019-05-26T13:17:48.034Z,1004.81
2019-05-26T13:18:48.009Z,1004.80
2019-05-26T13:19:47.998Z,1004.80
2019-05-26T13:20:47.989Z,1004.81
2019-05-26T13:21:47.976Z,1004.75
2019-05-26T13:22:47.980Z,1004.74
2019-05-26T13:23:47.958Z,1004.78
2019-05-26T13:24:47.945Z,1004.76
2019-05-26T13:25:47.936Z,1004.79
2019-05-26T13:26:47.924Z,1004.79
2019-05-26T13:27:47.929Z,1004.78
2019-05-26T13:28:47.902Z,1004.79
2019-05-26T13:29:47.892Z,1004.75
2019-05-26T13:30:47.879Z,1004.79
2019-05-26T13:31:47.870Z,1004.74
2019-05-26T13:32:47.859Z,1004.73
2019-05-26T13:33:47.864Z,1004.74
2019-05-26T13:34:47.834Z,1004.72
2019-05-26T13:35:47.824Z,1004.70
2019-05-26T13:36:47.839Z,1004.68
2019-05-26T13:37:47.800Z,1004.72
2019-05-26T13:38:47.801Z,1004.68
2019-05-26T13:39:47.780Z,1004.69
2019-05-26T13:40:47.763Z,1004.72
2019-05-26T13:41:47.754Z,1004.74
2019-05-26T13:42:47.759Z,1004.72
2019-05-26T13:43:47.727Z,1004.78
2019-05-26T13:44:47.728Z,1004.70
2019-05-26T13:45:47.704Z,1004.73
2019-05-26T13:46:47.688Z,1004.74
2019-05-26T13:47:47.679Z,1004.69
2019-05-26T13:48:47.667Z,1004.74
2019-05-26T13:49:47.667Z,1004.72
2019-05-26T13:50:47.641Z,1004.76
2019-05-26T13:51:50.324Z,1004.78
2019-05-26T13:52:47.617Z,1004.78
2019-05-26T13:53:47.604Z,1004.80
2019-05-26T13:54:47.612Z,1004.74
2019-05-26T13:55:47.584Z,1004.72
2019-05-26T13:56:47.570Z,1004.76
2019-05-26T13:57:49.650Z,1004.72
2019-05-26T13:58:47.544Z,1004.74
2019-05-26T13:59:47.532Z,1004.71
2019-05-26T14:00:47.533Z,1004.71
2019-05-26T14:01:47.516Z,1004.73
2019-05-26T14:02:47.498Z,1004.68
2019-05-26T14:03:47.485Z,1004.66
2019-05-26T14:04:47.519Z,1004.65
2019-05-26T14:05:47.464Z,1004.69
2019-05-26T14:06:47.451Z,1004.62
2019-05-26T14:07:47.439Z,1004.64
2019-05-26T14:08:47.431Z,1004.65
2019-05-26T14:09:47.422Z,1004.63
2019-05-26T14:10:47.423Z,1004.65
2019-05-26T14:11:47.395Z,1004.61
2019-05-26T14:12:47.385Z,1004.64
2019-05-26T14:13:47.375Z,1004.62
2019-05-26T14:14:47.366Z,1004.64
2019-05-26T14:15:47.376Z,1004.68
2019-05-26T14:16:47.342Z,1004.65
2019-05-26T14:17:47.332Z,1004.68
2019-05-26T14:18:47.319Z,1004.63
2019-05-26T14:19:47.311Z,1004.63
2019-05-26T14:20:47.317Z,1004.60
2019-05-26T14:21:47.294Z,1004.55
2019-05-26T14:22:47.278Z,1004.54
2019-05-26T14:23:47.269Z,1004.55
2019-05-26T14:24:53.737Z,1004.52
2019-05-26T14:25:47.264Z,1004.52
2019-05-26T14:26:47.254Z,1004.51
2019-05-26T14:27:47.231Z,1004.50
2019-05-26T14:28:47.219Z,1004.48
2019-05-26T14:29:47.208Z,1004.44
2019-05-26T14:30:47.232Z,1004.44
2019-05-26T14:31:47.188Z,1004.43
2019-05-26T14:32:47.178Z,1004.38
2019-05-26T14:33:47.167Z,1004.35
2019-05-26T14:34:47.154Z,1004.37
2019-05-26T14:35:47.145Z,1004.32
2019-05-26T14:36:47.148Z,1004.27
2019-05-26T14:37:47.126Z,1004.21
2019-05-26T14:38:47.117Z,1004.23
2019-05-26T14:39:49.973Z,1004.24
2019-05-26T14:40:47.095Z,1004.25
2019-05-26T14:41:47.103Z,1004.19
2019-05-26T14:42:47.073Z,1004.17
2019-05-26T14:43:47.062Z,1004.18
2019-05-26T14:44:47.117Z,1004.19
2019-05-26T14:45:53.402Z,1004.18
2019-05-26T14:46:47.046Z,1004.17
2019-05-26T14:47:47.025Z,1004.17
2019-05-26T14:48:47.009Z,1004.17
2019-05-26T14:49:46.997Z,1004.15
2019-05-26T14:50:46.990Z,1004.13
2019-05-26T14:51:46.991Z,1004.14
2019-05-26T14:52:46.964Z,1004.10
2019-05-26T14:53:46.951Z,1004.10
2019-05-26T14:54:46.940Z,1004.12
2019-05-26T14:55:46.932Z,1004.09
2019-05-26T14:56:46.934Z,1004.08
2019-05-26T14:57:46.907Z,1004.06
2019-05-26T14:58:46.896Z,1004.00
2019-05-26T14:59:46.884Z,1004.02
2019-05-26T15:00:46.874Z,1004.00
2019-05-26T15:01:46.877Z,1003.99
2019-05-26T15:02:46.933Z,1003.96
2019-05-26T15:03:46.841Z,1003.98
2019-05-26T15:04:46.828Z,1003.92
2019-05-26T15:05:46.816Z,1003.93
2019-05-26T15:06:46.820Z,1003.92
2019-05-26T15:07:46.793Z,1003.86
2019-05-26T15:08:46.781Z,1003.87
2019-05-26T15:09:46.771Z,1003.84
2019-05-26T15:10:46.763Z,1003.85
2019-05-26T15:11:46.780Z,1003.86
2019-05-26T15:12:46.766Z,1003.84
2019-05-26T15:13:46.746Z,1003.83
2019-05-26T15:14:46.711Z,1003.84
2019-05-26T15:15:46.715Z,1003.80
2019-05-26T15:16:46.688Z,1003.82
2019-05-26T15:17:46.674Z,1003.82
2019-05-26T15:18:46.663Z,1003.79
2019-05-26T15:19:46.652Z,1003.80
2019-05-26T15:20:46.656Z,1003.77
2019-05-26T15:21:46.627Z,1003.80
2019-05-26T15:22:46.613Z,1003.78
2019-05-26T15:23:46.601Z,1003.82
2019-05-26T15:24:46.587Z,1003.81
2019-05-26T15:25:46.619Z,1003.80
2019-05-26T15:26:46.576Z,1003.77
2019-05-26T15:27:46.888Z,1003.76
2019-05-26T15:28:46.544Z,1003.82
2019-05-26T15:29:46.526Z,1003.80
2019-05-26T15:30:46.509Z,1003.78
2019-05-26T15:31:46.513Z,1003.78
2019-05-26T15:32:46.493Z,1003.82
2019-05-26T15:33:46.474Z,1003.81
2019-05-26T15:34:46.459Z,1003.80
2019-05-26T15:35:46.446Z,1003.81
2019-05-26T15:36:46.471Z,1003.81
2019-05-26T15:37:46.477Z,1003.77
2019-05-26T15:38:46.408Z,1003.77
2019-05-26T15:39:46.396Z,1003.81
2019-05-26T15:40:46.579Z,1003.76
2019-05-26T15:41:46.385Z,1003.77
2019-05-26T15:42:46.422Z,1003.73
2019-05-26T15:43:46.340Z,1003.76
2019-05-26T15:44:46.338Z,1003.76
2019-05-26T15:45:46.316Z,1003.75
2019-05-26T15:46:46.302Z,1003.73
2019-05-26T15:47:46.303Z,1003.75
2019-05-26T15:48:46.275Z,1003.77
2019-05-26T15:49:46.262Z,1003.76
2019-05-26T15:50:46.267Z,1003.72
2019-05-26T15:51:46.234Z,1003.74
2019-05-26T15:52:46.264Z,1003.74
2019-05-26T15:53:46.210Z,1003.75
2019-05-26T15:54:46.196Z,1003.74
2019-05-26T15:55:46.186Z,1003.75
2019-05-26T15:56:46.168Z,1003.76
2019-05-26T15:57:46.156Z,1003.74
2019-05-26T15:58:46.156Z,1003.74
2019-05-26T15:59:46.129Z,1003.69
2019-05-26T16:00:46.117Z,1003.66
2019-05-26T16:01:46.103Z,1003.63
2019-05-26T16:02:46.088Z,1003.68
2019-05-26T16:03:46.093Z,1003.64
2019-05-26T16:04:46.064Z,1003.66
2019-05-26T16:05:46.050Z,1003.62
2019-05-26T16:06:46.034Z,1003.62
2019-05-26T16:07:46.022Z,1003.60
2019-05-26T16:08:46.025Z,1003.63
2019-05-26T16:09:45.996Z,1003.58
2019-05-26T16:10:45.982Z,1003.58
2019-05-26T16:11:45.967Z,1003.59
2019-05-26T16:12:45.953Z,1003.52
2019-05-26T16:13:45.955Z,1003.51
2019-05-26T16:14:45.927Z,1003.53
2019-05-26T16:15:45.915Z,1003.49
2019-05-26T16:16:45.901Z,1003.50
2019-05-26T16:17:45.888Z,1003.50
2019-05-26T16:18:45.889Z,1003.51
2019-05-26T16:19:45.867Z,1003.46
2019-05-26T16:20:45.847Z,1003.49
2019-05-26T16:21:45.834Z,1003.49
2019-05-26T16:22:45.827Z,1003.48
2019-05-26T16:23:45.808Z,1003.45
2019-05-26T16:24:45.805Z,1003.46
2019-05-26T16:25:45.782Z,1003.47
2019-05-26T16:26:45.763Z,1003.43
2019-05-26T16:27:45.750Z,1003.42
2019-05-26T16:28:45.734Z,1003.43
2019-05-26T16:29:46.690Z,1003.45
2019-05-26T16:30:45.758Z,1003.46
2019-05-26T16:31:45.697Z,1003.48
2019-05-26T16:32:45.679Z,1003.53
2019-05-26T16:33:45.666Z,1003.55
2019-05-26T16:34:45.674Z,1003.51
2019-05-26T16:35:45.638Z,1003.52
2019-05-26T16:36:45.626Z,1003.53
2019-05-26T16:37:45.614Z,1003.52
2019-05-26T16:38:45.602Z,1003.48
2019-05-26T16:39:45.601Z,1003.47
2019-05-26T16:40:45.568Z,1003.53
2019-05-26T16:41:45.557Z,1003.48
2019-05-26T16:42:45.543Z,1003.49
2019-05-26T16:43:45.528Z,1003.44
2019-05-26T16:44:45.514Z,1003.48
2019-05-26T16:45:55.617Z,1003.53
2019-05-26T16:46:55.996Z,1003.48
2019-05-26T16:47:45.472Z,1003.43
2019-05-26T16:48:45.461Z,1003.47
2019-05-26T16:49:45.451Z,1003.45
2019-05-26T16:50:45.440Z,1003.46
2019-05-26T16:51:45.413Z,1003.39
2019-05-26T16:52:45.401Z,1003.39
2019-05-26T16:53:45.390Z,1003.38
2019-05-26T16:54:45.371Z,1003.38
2019-05-26T16:55:45.378Z,1003.39
2019-05-26T16:56:45.345Z,1003.41
2019-05-26T16:57:45.332Z,1003.44
2019-05-26T16:58:45.317Z,1003.42
2019-05-26T16:59:45.300Z,1003.36